Time;durP1;ratioP1;P1;durP2;ratioP2;P2;SDS_P1;SDS_P2;PMS_P1;PMS_P2;Temp;Humidity;BMP_temperature;BMP_pressure;BME280_temperature;BME280_humidity;BME280_pressure;Samples;Min_cycle;Max_cycle;Signal;HPM_P1;HPM_P2
2022/04/11 00:00:42;;;;;;;9.15;5.95;;;128.60;2252.80;;;;;;5031067;28;20064;-55
2022/04/11 00:03:08;;;;;;;9.07;5.60;;;128.70;2252.80;;;;;;5030783;28;20043;-55
2022/04/11 00:05:34;;;;;;;9.95;6.38;;;128.70;2252.80;;;;;;5031379;28;20435;-53
2022/04/11 00:07:59;;;;;;;8.18;5.55;;;128.70;2252.80;;;;;;5030727;28;20033;-55
2022/04/11 00:10:25;;;;;;;10.07;6.25;;;128.60;2252.80;;;;;;5031106;28;20180;-55
2022/04/11 00:12:51;;;;;;;8.23;5.40;;;128.60;2252.80;;;;;;5030502;28;20029;-54
2022/04/11 00:15:17;;;;;;;9.52;7.18;;;128.60;2252.80;;;;;;5030663;28;20033;-54
2022/04/11 00:17:42;;;;;;;8.68;5.05;;;128.60;2252.80;;;;;;5030680;28;20040;-55
2022/04/11 00:20:08;;;;;;;7.82;5.57;;;128.70;2252.80;;;;;;5030701;28;20045;-55
2022/04/11 00:22:37;;;;;;;8.48;5.40;;;128.70;2252.80;;;;;;5030993;28;20132;-52
2022/04/11 00:25:04;;;;;;;8.02;5.22;;;128.70;2252.80;;;;;;5030975;28;20030;-53
2022/04/11 00:27:30;;;;;;;8.45;4.68;;;128.70;2252.80;;;;;;5030293;28;20492;-55
2022/04/11 00:29:55;;;;;;;10.43;5.30;;;128.60;2252.80;;;;;;5030591;28;20076;-54
2022/04/11 00:32:21;;;;;;;8.07;5.43;;;128.60;2252.80;;;;;;5030316;28;20053;-55
2022/04/11 00:34:47;;;;;;;6.80;5.25;;;128.60;2252.80;;;;;;5030474;28;20510;-54
2022/04/11 00:37:12;;;;;;;11.23;5.28;;;128.60;2252.80;;;;;;5030570;28;20087;-56
2022/04/11 00:39:38;;;;;;;11.85;5.10;;;128.50;2252.80;;;;;;5030651;28;20030;-55
2022/04/11 00:42:11;;;;;;;10.25;5.72;;;128.40;2252.80;;;;;;5030745;28;20022;-55
2022/04/11 00:44:37;;;;;;;6.95;4.63;;;128.40;2252.80;;;;;;5030400;28;20026;-55
2022/04/11 00:47:03;;;;;;;8.65;4.68;;;128.30;2252.80;;;;;;5030463;28;20034;-55
2022/04/11 00:49:29;;;;;;;6.93;4.75;;;128.30;2252.80;;;;;;5030015;28;20070;-55
2022/04/11 00:51:55;;;;;;;10.25;6.57;;;128.30;2252.80;;;;;;5030432;28;20022;-54
2022/04/11 00:54:21;;;;;;;6.82;4.88;;;128.30;2252.80;;;;;;5029988;28;20415;-55
2022/04/11 00:56:47;;;;;;;6.90;4.43;;;128.30;2252.80;;;;;;5030052;28;20075;-55
2022/04/11 00:59:15;;;;;;;6.20;4.13;;;128.30;2252.80;;;;;;5030257;28;20044;-56
2022/04/11 01:01:41;;;;;;;9.35;4.25;;;128.30;2252.80;;;;;;5029967;28;20116;-54
2022/04/11 01:04:22;;;;;;;6.32;4.40;;;128.30;2252.80;;;;;;5030038;28;20421;-55
2022/04/11 01:06:49;;;;;;;6.68;4.57;;;128.30;2252.80;;;;;;5030007;28;20076;-54
2022/04/11 01:09:15;;;;;;;10.90;5.15;;;128.30;2252.80;;;;;;5030250;28;20037;-54
2022/04/11 01:11:40;;;;;;;6.75;4.20;;;128.30;2252.80;;;;;;5030032;28;20088;-54
2022/04/11 01:14:06;;;;;;;6.93;3.90;;;128.20;2252.80;;;;;;5030201;28;20065;-53
2022/04/11 01:16:32;;;;;;;7.22;4.38;;;128.20;2252.80;;;;;;5029898;28;20033;-54
2022/04/11 01:18:58;;;;;;;22.85;20.52;;;128.20;2252.80;;;;;;5030116;28;20083;-55
2022/04/11 01:21:27;;;;;;;9.77;6.97;;;128.20;2252.80;;;;;;5029936;28;20032;-55
2022/04/11 01:23:52;;;;;;;7.43;4.75;;;128.30;2252.80;;;;;;5031002;28;20047;-53
2022/04/11 01:26:22;;;;;;;10.15;4.13;;;128.30;2252.80;;;;;;5033808;28;20108;-56
2022/04/11 01:28:48;;;;;;;7.90;4.45;;;128.20;2252.80;;;;;;5033803;28;20045;-55
2022/04/11 01:31:16;;;;;;;7.60;4.82;;;128.20;2252.80;;;;;;5033757;28;20021;-54
2022/04/11 01:33:42;;;;;;;6.30;4.78;;;128.20;2252.80;;;;;;5033609;28;20049;-55
2022/04/11 01:36:08;;;;;;;7.82;4.72;;;128.20;2252.80;;;;;;5034029;28;20187;-55
2022/04/11 01:38:34;;;;;;;5.78;3.63;;;128.10;2252.80;;;;;;5033910;28;20521;-55
2022/04/11 01:40:59;;;;;;;7.57;3.88;;;128.10;2252.80;;;;;;5033633;28;20040;-55
2022/04/11 01:43:26;;;;;;;7.35;3.40;;;128.10;2252.80;;;;;;5033698;28;20369;-54
2022/04/11 01:45:52;;;;;;;10.05;4.30;;;128.10;2252.80;;;;;;5033484;28;20384;-53
2022/04/11 01:48:18;;;;;;;6.72;3.80;;;128.10;2252.80;;;;;;5033426;28;20044;-54
2022/04/11 01:50:44;;;;;;;10.20;6.72;;;128.10;2252.80;;;;;;5033478;28;20361;-54
2022/04/11 01:53:13;;;;;;;8.50;3.90;;;128.20;2252.80;;;;;;5033392;28;20083;-54
2022/04/11 01:55:40;;;;;;;6.80;4.13;;;128.20;2252.80;;;;;;5033353;28;20113;-53
2022/04/11 01:58:07;;;;;;;6.13;4.28;;;128.10;2252.80;;;;;;5033809;28;20152;-54
2022/04/11 02:00:34;;;;;;;9.85;4.97;;;128.20;2252.80;;;;;;5033328;28;20033;-54
2022/04/11 02:03:00;;;;;;;8.32;4.32;;;128.10;2252.80;;;;;;5032934;28;20033;-54
2022/04/11 02:05:27;;;;;;;8.80;3.65;;;128.20;2252.80;;;;;;5033333;28;20117;-53
2022/04/11 02:07:53;;;;;;;7.07;3.60;;;128.10;2252.80;;;;;;5033394;28;20040;-54
2022/04/11 02:10:19;;;;;;;9.60;5.50;;;128.20;2252.80;;;;;;5033181;28;20041;-56
2022/04/11 02:12:47;;;;;;;5.85;3.83;;;128.20;2252.80;;;;;;5033230;28;20021;-55
2022/04/11 02:15:13;;;;;;;4.57;3.65;;;128.20;2252.80;;;;;;5033240;28;20080;-55
2022/04/11 02:17:39;;;;;;;5.50;3.50;;;128.10;2252.80;;;;;;5032794;28;20428;-55
2022/04/11 02:20:07;;;;;;;5.25;3.67;;;128.20;2252.80;;;;;;5033370;28;20037;-53
2022/04/11 02:22:54;;;;;;;6.60;4.07;;;128.00;2252.80;;;;;;5033079;28;20495;-56
2022/04/11 02:25:24;;;;;;;6.05;3.45;;;128.20;2252.80;;;;;;5032770;28;20484;-56
2022/04/11 02:27:50;;;;;;;5.55;3.08;;;128.10;2252.80;;;;;;5032646;28;20503;-54
2022/04/11 02:30:18;;;;;;;5.28;3.28;;;128.10;2252.80;;;;;;5032977;28;20515;-54
2022/04/11 02:32:45;;;;;;;7.05;3.17;;;128.10;2252.80;;;;;;5032738;28;20036;-56
2022/04/11 02:35:11;;;;;;;5.93;3.28;;;128.00;2252.80;;;;;;5032228;28;20104;-54
2022/04/11 02:37:37;;;;;;;7.53;3.85;;;128.00;2252.80;;;;;;5032820;28;20030;-55
2022/04/11 02:40:05;;;;;;;7.60;3.47;;;128.00;2252.80;;;;;;5032867;28;20388;-54
2022/04/11 02:42:31;;;;;;;6.53;3.10;;;128.00;2252.80;;;;;;5032352;28;20048;-55
2022/04/11 02:44:57;;;;;;;7.32;3.95;;;103.30;2227.20;;;;;;5032353;28;20029;-55
2022/04/11 02:47:23;;;;;;;7.03;3.80;;;103.30;2227.20;;;;;;5032536;28;20448;-55
2022/04/11 02:49:48;;;;;;;4.80;3.30;;;103.30;2227.20;;;;;;5032423;28;20042;-54
2022/04/11 02:52:15;;;;;;;6.80;3.90;;;103.20;2227.20;;;;;;5032520;28;20540;-54
2022/04/11 02:54:41;;;;;;;12.82;3.83;;;103.20;2227.20;;;;;;5032230;28;20084;-54
2022/04/11 02:57:07;;;;;;;5.35;3.20;;;103.20;2227.20;;;;;;5032541;28;20026;-55
2022/04/11 02:59:33;;;;;;;5.82;3.60;;;103.20;2227.20;;;;;;5032377;28;20032;-55
2022/04/11 03:02:00;;;;;;;6.82;3.33;;;103.20;2227.20;;;;;;5032126;28;20033;-54
2022/04/11 03:04:29;;;;;;;6.50;4.18;;;103.20;2227.20;;;;;;5032161;28;20029;-54
2022/04/11 03:06:55;;;;;;;6.40;3.50;;;103.20;2227.20;;;;;;5032190;28;20037;-56
2022/04/11 03:09:21;;;;;;;7.03;3.60;;;103.20;2227.20;;;;;;5031996;28;20490;-55
2022/04/11 03:11:47;;;;;;;5.43;3.92;;;103.20;2227.20;;;;;;5031972;28;20045;-55
2022/04/11 03:14:13;;;;;;;8.35;3.60;;;103.20;2227.20;;;;;;5032035;28;20072;-56
2022/04/11 03:16:40;;;;;;;4.88;3.03;;;103.20;2227.20;;;;;;5031781;28;20090;-55
2022/04/11 03:19:06;;;;;;;5.95;2.88;;;103.20;2227.20;;;;;;5032185;28;20388;-53
2022/04/11 03:21:32;;;;;;;6.22;3.40;;;103.20;2227.20;;;;;;5032060;28;20021;-55
2022/04/11 03:23:58;;;;;;;10.88;3.72;;;103.20;2227.20;;;;;;5031854;28;20025;-53
2022/04/11 03:26:24;;;;;;;7.80;3.75;;;103.30;2227.20;;;;;;5031791;28;20028;-55
2022/04/11 03:28:50;;;;;;;5.20;2.88;;;103.30;2227.20;;;;;;5031481;28;20069;-55
2022/04/11 03:31:15;;;;;;;8.88;4.38;;;103.30;2227.20;;;;;;5031840;28;20021;-55
2022/04/11 03:33:41;;;;;;;4.30;2.95;;;103.30;2227.20;;;;;;5031235;28;20103;-54
2022/04/11 03:36:07;;;;;;;4.60;2.53;;;103.30;2227.20;;;;;;5031747;28;20061;-56
2022/04/11 03:38:32;;;;;;;9.07;5.68;;;103.30;2227.20;;;;;;5031557;28;20057;-54
2022/04/11 03:40:58;;;;;;;8.55;4.10;;;103.30;2227.20;;;;;;5031497;28;20079;-55
2022/04/11 03:43:24;;;;;;;4.43;2.65;;;103.30;2227.20;;;;;;5031499;28;20383;-54
2022/04/11 03:45:50;;;;;;;6.03;3.63;;;103.30;2227.20;;;;;;5030978;28;20046;-55
2022/04/11 03:48:15;;;;;;;7.50;2.85;;;103.30;2227.20;;;;;;5030903;28;20034;-55
2022/04/11 03:50:41;;;;;;;5.15;3.00;;;103.30;2227.20;;;;;;5031163;28;20033;-55
2022/04/11 03:53:07;;;;;;;6.38;3.05;;;103.20;2227.20;;;;;;5031594;28;20033;-55
2022/04/11 03:55:33;;;;;;;6.70;3.17;;;103.30;2227.20;;;;;;5031386;28;20029;-55
2022/04/11 03:57:58;;;;;;;6.03;3.40;;;103.20;2227.20;;;;;;5030995;28;20388;-56
2022/04/11 04:00:24;;;;;;;36.10;27.02;;;103.20;2227.20;;;;;;5031106;28;20116;-55
2022/04/11 04:02:50;;;;;;;5.25;3.65;;;103.20;2227.20;;;;;;5030877;28;20086;-55
2022/04/11 04:05:16;;;;;;;32.78;29.42;;;103.20;2227.20;;;;;;5031300;28;20053;-54
2022/04/11 04:07:42;;;;;;;7.38;3.75;;;103.20;2227.20;;;;;;5031106;28;20033;-53
2022/04/11 04:10:08;;;;;;;4.32;2.65;;;103.20;2227.20;;;;;;5030870;28;20098;-55
2022/04/11 04:12:34;;;;;;;8.55;7.75;;;103.30;2227.20;;;;;;5031061;28;20035;-54
2022/04/11 04:15:01;;;;;;;4.85;3.35;;;103.30;2227.20;;;;;;5030704;28;20458;-55
2022/04/11 04:17:27;;;;;;;5.43;3.38;;;103.30;2227.20;;;;;;5030781;28;20107;-54
2022/04/11 04:19:52;;;;;;;5.28;3.05;;;103.30;2227.20;;;;;;5030964;28;20399;-55
2022/04/11 04:22:19;;;;;;;6.32;4.72;;;128.00;2252.80;;;;;;5030607;28;20034;-55
2022/04/11 04:24:45;;;;;;;5.75;4.45;;;128.00;2252.80;;;;;;5031007;28;20026;-55
2022/04/11 04:27:10;;;;;;;7.65;5.03;;;128.10;2252.80;;;;;;5030525;28;20423;-54
2022/04/11 04:29:36;;;;;;;5.82;3.75;;;128.10;2252.80;;;;;;5030689;28;20037;-54
2022/04/11 04:32:02;;;;;;;6.38;3.55;;;103.30;2227.20;;;;;;5029344;28;20053;-55
2022/04/11 04:34:31;;;;;;;5.60;3.28;;;128.30;2252.80;;;;;;5029282;28;20061;-55
2022/04/11 04:36:58;;;;;;;7.07;5.22;;;128.30;2252.80;;;;;;5030692;28;20034;-55
2022/04/11 04:39:24;;;;;;;8.60;5.25;;;128.40;2252.80;;;;;;5030520;28;20065;-55
2022/04/11 04:41:50;;;;;;;9.55;7.82;;;128.40;2252.80;;;;;;5030302;28;20025;-55
2022/04/11 04:44:16;;;;;;;5.93;3.97;;;128.40;2252.80;;;;;;5030546;28;20033;-55
2022/04/11 04:46:42;;;;;;;8.55;4.10;;;128.50;2252.80;;;;;;5030094;28;20041;-54
2022/04/11 04:49:07;;;;;;;8.13;4.45;;;128.60;2252.80;;;;;;5030508;28;20132;-55
2022/04/11 04:51:33;;;;;;;8.35;4.78;;;128.70;2252.80;;;;;;5030584;28;20111;-55
2022/04/11 04:53:59;;;;;;;8.05;4.32;;;128.70;2252.80;;;;;;5030299;28;20039;-54
2022/04/11 04:56:25;;;;;;;4.55;4.07;;;128.70;2252.80;;;;;;5030262;28;20487;-52
2022/04/11 04:58:51;;;;;;;8.75;5.03;;;128.80;2252.80;;;;;;5028443;28;20045;-52
2022/04/11 05:01:17;;;;;;;6.18;3.67;;;128.90;2252.80;;;;;;5030015;28;20026;-55
2022/04/11 05:03:43;;;;;;;5.82;3.17;;;153.60;2252.80;;;;;;5030263;28;20045;-54
2022/04/11 05:06:09;;;;;;;5.00;3.35;;;153.80;2252.80;;;;;;5030148;28;20474;-54
2022/04/11 05:08:36;;;;;;;6.50;3.90;;;230.90;2073.60;;;;;;5030085;28;20045;-53
2022/04/11 05:11:01;;;;;;;7.38;3.60;;;307.70;1740.80;;;;;;5030012;28;20025;-54
2022/04/11 05:13:27;;;;;;;7.43;3.95;;;358.50;1587.20;;;;;;5029291;28;20404;-55
2022/04/11 05:15:53;;;;;;;6.20;3.55;;;384.40;1459.20;;;;;;5030096;28;20108;-52
2022/04/11 05:18:19;;;;;;;7.70;3.40;;;410.20;1382.40;;;;;;5029864;28;20060;-65
2022/04/11 05:20:45;;;;;;;6.88;3.22;;;435.20;1331.20;;;;;;5030220;28;20052;-60
2022/04/11 05:23:10;;;;;;;4.75;3.35;;;435.60;1305.60;;;;;;5029715;28;20399;-55
2022/04/11 05:25:36;;;;;;;6.82;2.95;;;384.50;1408.00;;;;;;5030031;28;20116;-57
2022/04/11 05:28:02;;;;;;;5.38;3.20;;;358.70;1484.80;;;;;;5029688;28;20140;-62
2022/04/11 05:30:33;;;;;;;4.70;4.03;;;359.30;1433.60;;;;;;5028291;28;20059;-56
2022/04/11 05:33:00;;;;;;;7.85;4.50;;;409.60;1408.00;;;;;;5029742;28;20043;-57
2022/04/11 05:35:26;;;;;;;5.15;3.63;;;436.10;1280.00;;;;;;5029721;28;20053;-57
2022/04/11 05:37:52;;;;;;;8.40;4.18;;;486.70;1203.20;;;;;;5029664;28;20154;-59
2022/04/11 05:40:18;;;;;;;5.57;3.40;;;512.10;1177.60;;;;;;5029747;28;20053;-58
2022/04/11 05:42:43;;;;;;;7.63;5.03;;;486.50;1177.60;;;;;;5029952;28;20022;-62
2022/04/11 05:45:09;;;;;;;7.60;5.32;;;487.10;1177.60;;;;;;5029547;28;20033;-59
2022/04/11 05:47:35;;;;;;;29.50;26.23;;;487.30;1152.00;;;;;;5029788;28;20052;-61
2022/04/11 05:50:01;;;;;;;20.77;18.42;;;512.40;1100.80;;;;;;5029826;28;20109;-63
2022/04/11 05:52:26;;;;;;;35.67;27.83;;;538.00;1126.40;;;;;;5030001;28;20021;-61
2022/04/11 05:54:52;;;;;;;9.75;5.85;;;563.90;1075.20;;;;;;5029502;28;20491;-65
2022/04/11 05:57:18;;;;;;;171.00;153.02;;;563.70;1075.20;;;;;;5029621;28;20117;-57
2022/04/11 05:59:43;;;;;;;39.35;35.90;;;588.90;1049.60;;;;;;5029790;28;20034;-65
2022/04/11 06:02:10;;;;;;;7.00;5.30;;;589.30;1024.00;;;;;;5029337;28;20506;-57
2022/04/11 06:04:37;;;;;;;16.40;13.82;;;614.60;972.80;;;;;;5029609;28;20111;-60
2022/04/11 06:07:04;;;;;;;8.30;6.28;;;615.20;947.20;;;;;;5029529;28;20468;-57
2022/04/11 06:09:30;;;;;;;53.70;35.47;;;640.90;896.00;;;;;;5029670;28;20132;-57
2022/04/11 06:11:57;;;;;;;15.95;11.32;;;640.60;896.00;;;;;;5033346;28;20030;-58
2022/04/11 06:14:22;;;;;;;12.18;6.70;;;640.00;947.20;;;;;;5033242;28;20436;-65
2022/04/11 06:16:48;;;;;;;23.20;19.00;;;666.00;896.00;;;;;;5033450;28;20104;-65
2022/04/11 06:19:15;;;;;;;15.38;12.00;;;640.90;896.00;;;;;;5033338;28;20120;-60
2022/04/11 06:21:40;;;;;;;22.50;19.48;;;665.70;896.00;;;;;;5032811;28;20026;-60
2022/04/11 06:24:06;;;;;;;16.67;14.80;;;640.50;896.00;;;;;;5033171;28;20037;-57
2022/04/11 06:26:32;;;;;;;19.38;15.40;;;665.90;896.00;;;;;;5032755;28;20100;-60
2022/04/11 06:28:58;;;;;;;9.73;8.70;;;666.30;870.40;;;;;;5032822;28;20037;-61
2022/04/11 06:31:23;;;;;;;8.90;7.82;;;640.70;870.40;;;;;;5033057;28;20064;-60
2022/04/11 06:33:49;;;;;;;7.60;6.65;;;666.20;870.40;;;;;;5032556;28;20567;-60
2022/04/11 06:36:15;;;;;;;8.15;5.93;;;666.30;870.40;;;;;;5033105;28;20587;-59
2022/04/11 06:38:41;;;;;;;7.28;6.63;;;666.20;870.40;;;;;;5032164;28;20379;-57
2022/04/11 06:41:07;;;;;;;8.63;7.72;;;665.60;896.00;;;;;;5032320;28;20391;-62
2022/04/11 06:43:33;;;;;;;9.15;8.15;;;691.40;844.80;;;;;;5032750;28;20017;-62
2022/04/11 06:45:58;;;;;;;13.63;12.18;;;717.20;844.80;;;;;;5032495;28;20037;-61
2022/04/11 06:48:25;;;;;;;9.90;9.00;;;717.70;793.60;;;;;;5032546;28;20029;-60
2022/04/11 06:50:52;;;;;;;8.82;8.05;;;743.20;819.20;;;;;;5032706;28;20112;-65
2022/04/11 06:53:19;;;;;;;10.43;9.43;;;742.60;844.80;;;;;;5032414;28;20468;-65
2022/04/11 06:55:47;;;;;;;7.78;7.18;;;768.40;793.60;;;;;;5032459;28;20030;-62
2022/04/11 06:58:14;;;;;;;8.35;7.50;;;743.30;819.20;;;;;;5032538;28;20025;-62
2022/04/11 07:00:40;;;;;;;8.50;7.85;;;742.80;819.20;;;;;;5032327;28;20028;-61
2022/04/11 07:03:06;;;;;;;11.40;10.50;;;742.50;819.20;;;;;;5032289;28;20025;-66
2022/04/11 07:05:31;;;;;;;7.80;7.20;;;691.90;819.20;;;;;;5032107;28;20156;-63
2022/04/11 07:07:57;;;;;;;7.40;6.70;;;717.30;819.20;;;;;;5031971;28;20017;-58
2022/04/11 07:10:23;;;;;;;7.28;6.57;;;717.40;819.20;;;;;;5032264;28;20049;-63
2022/04/11 07:12:49;;;;;;;7.55;6.85;;;692.10;819.20;;;;;;5032125;28;20463;-59
2022/04/11 07:15:15;;;;;;;8.73;6.55;;;717.00;819.20;;;;;;5032372;28;20070;-65
2022/04/11 07:17:42;;;;;;;20.10;18.40;;;717.20;819.20;;;;;;5031706;28;20041;-60
2022/04/11 07:20:09;;;;;;;9.07;6.85;;;717.00;844.80;;;;;;5032092;28;20053;-65
2022/04/11 07:22:35;;;;;;;8.82;7.93;;;716.90;844.80;;;;;;5031217;28;20388;-65
2022/04/11 07:25:04;;;;;;;10.52;9.70;;;742.80;819.20;;;;;;5031902;28;20022;-57
2022/04/11 07:27:29;;;;;;;8.52;7.88;;;742.90;819.20;;;;;;5031691;28;20033;-61
2022/04/11 07:29:55;;;;;;;6.93;5.95;;;768.50;793.60;;;;;;5031296;28;20443;-65
2022/04/11 07:32:21;;;;;;;6.72;6.13;;;768.40;768.00;;;;;;5031015;28;20033;-63
2022/04/11 07:34:47;;;;;;;6.38;5.88;;;743.20;819.20;;;;;;5031607;28;20851;-64
2022/04/11 07:37:13;;;;;;;5.50;5.00;;;743.00;819.20;;;;;;5031644;28;20023;-64
2022/04/11 07:39:39;;;;;;;5.97;5.47;;;743.00;819.20;;;;;;5031000;28;20109;-58
2022/04/11 07:42:05;;;;;;;6.45;5.95;;;742.90;819.20;;;;;;5031350;28;20017;-61
2022/04/11 07:44:30;;;;;;;11.55;10.55;;;793.60;793.60;;;;;;5030937;28;20491;-59
2022/04/11 07:46:56;;;;;;;11.05;8.55;;;794.00;793.60;;;;;;5031409;28;20026;-57
2022/04/11 07:49:22;;;;;;;8.70;7.85;;;845.10;768.00;;;;;;5030945;28;20041;-61
2022/04/11 07:51:48;;;;;;;9.38;8.55;;;820.10;768.00;;;;;;5031597;28;20032;-63
2022/04/11 07:54:14;;;;;;;9.98;9.18;;;794.20;793.60;;;;;;5031591;28;20423;-60
2022/04/11 07:56:39;;;;;;;7.80;7.10;;;819.30;768.00;;;;;;5031264;28;20468;-57
2022/04/11 07:59:05;;;;;;;6.32;5.82;;;845.10;768.00;;;;;;5031261;28;20480;-65
2022/04/11 08:01:31;;;;;;;6.15;5.63;;;820.10;742.40;;;;;;5030996;28;20029;-65
2022/04/11 08:03:56;;;;;;;7.38;6.72;;;819.60;768.00;;;;;;5030935;28;20030;-67
2022/04/11 08:06:22;;;;;;;9.80;7.35;;;819.80;768.00;;;;;;5029668;28;20446;-57
2022/04/11 08:08:48;;;;;;;6.07;5.07;;;819.20;768.00;;;;;;5030736;28;20038;-63
2022/04/11 08:11:18;;;;;;;5.18;4.65;;;691.80;844.80;;;;;;5031069;28;20022;-72
2022/04/11 08:13:44;;;;;;;6.90;6.30;;;640.60;844.80;;;;;;5031008;28;20021;-70
2022/04/11 08:16:10;;;;;;;17.05;9.15;;;717.70;819.20;;;;;;5030768;28;20416;-65
2022/04/11 08:18:37;;;;;;;6.22;5.57;;;768.10;793.60;;;;;;5030795;28;20029;-61
2022/04/11 08:21:03;;;;;;;6.00;5.35;;;793.70;793.60;;;;;;5030900;28;20029;-77
2022/04/11 08:23:29;;;;;;;8.35;6.97;;;743.20;793.60;;;;;;5030772;28;20392;-74
2022/04/11 08:25:55;;;;;;;5.68;4.63;;;768.40;793.60;;;;;;5030918;28;20558;-65
2022/04/11 08:28:21;;;;;;;6.20;5.38;;;742.50;819.20;;;;;;5030193;28;20141;-70
2022/04/11 08:30:47;;;;;;;7.97;6.28;;;717.20;819.20;;;;;;5030682;28;20033;-66
2022/04/11 08:33:12;;;;;;;6.70;6.07;;;742.80;793.60;;;;;;5030441;28;20025;-61
2022/04/11 08:35:38;;;;;;;6.60;4.50;;;691.40;819.20;;;;;;5030550;28;20056;-65
2022/04/11 08:38:04;;;;;;;5.65;3.92;;;716.80;819.20;;;;;;5030518;28;20522;-70
2022/04/11 08:40:30;;;;;;;4.90;2.95;;;640.60;870.40;;;;;;5029168;28;20045;-69
2022/04/11 08:42:56;;;;;;;5.55;4.43;;;614.50;921.60;;;;;;5030440;28;20029;-59
2022/04/11 08:45:23;;;;;;;11.45;8.85;;;615.10;921.60;;;;;;5030448;28;20021;-60
2022/04/11 08:47:59;;;;;;;5.00;4.22;;;589.70;947.20;;;;;;5028577;28;20419;-59
2022/04/11 08:50:26;;;;;;;3.90;3.33;;;563.70;972.80;;;;;;5027369;28;20025;-59
2022/04/11 08:52:53;;;;;;;5.10;3.28;;;512.10;1049.60;;;;;;5028973;28;20040;-62
2022/04/11 08:55:21;;;;;;;5.78;3.83;;;487.00;1126.40;;;;;;5029039;28;20025;-59
2022/04/11 08:57:47;;;;;;;6.75;5.55;;;486.90;1100.80;;;;;;5028975;28;20018;-59
2022/04/11 09:00:14;;;;;;;7.72;4.70;;;461.70;1126.40;;;;;;5028895;28;20036;-58
2022/04/11 09:02:42;;;;;;;6.75;2.80;;;486.80;1126.40;;;;;;5028375;28;20548;-59
2022/04/11 09:05:08;;;;;;;4.78;2.83;;;486.60;1126.40;;;;;;5029044;28;20029;-61
2022/04/11 09:07:51;;;;;;;5.35;3.95;;;461.40;1177.60;;;;;;5028986;28;20026;-60
2022/04/11 09:10:18;;;;;;;;;;;461.40;1177.60;;;;;;5026613;28;20041;-59
2022/04/11 09:13:00;;;;;;;12.15;4.40;;;486.50;1177.60;;;;;;5028832;28;19905;-62
2022/04/11 09:15:27;;;;;;;5.45;4.30;;;461.70;1152.00;;;;;;5027364;28;20025;-55
2022/04/11 09:17:56;;;;;;;12.23;8.85;;;461.50;1100.80;;;;;;5028334;28;20018;-67
2022/04/11 09:20:26;;;;;;;10.00;7.90;;;461.10;1100.80;;;;;;5025974;28;20029;-62
2022/04/11 09:22:52;;;;;;;8.43;5.18;;;461.40;1100.80;;;;;;5027379;28;20026;-61
2022/04/11 09:25:20;;;;;;;5.63;3.50;;;436.10;1126.40;;;;;;5026981;28;20033;-61
2022/04/11 09:27:47;;;;;;;4.97;3.20;;;435.50;1203.20;;;;;;5025800;28;20056;-63
2022/04/11 09:30:31;;;;;;;24.33;17.15;;;435.20;1254.40;;;;;;5027118;28;20068;-62
2022/04/11 09:32:56;;;;;;;;;;;435.60;1203.20;;;;;;5026760;28;20222;-57
2022/04/11 09:35:23;;;;;;;14.40;11.23;;;435.90;1203.20;;;;;;5027061;28;19925;-63
2022/04/11 09:38:18;;;;;;;8.20;5.07;;;435.90;1177.60;;;;;;5026923;28;20029;-57
2022/04/11 09:40:48;;;;;;;8.75;4.97;;;460.80;1203.20;;;;;;5025062;28;20021;-71
2022/04/11 09:43:15;;;;;;;13.27;10.32;;;435.90;1203.20;;;;;;5027063;28;20462;-62
2022/04/11 09:45:47;;;;;;;8.45;4.70;;;435.80;1177.60;;;;;;5026348;28;20026;-65
2022/04/11 09:48:25;;;;;;;4.95;4.03;;;436.00;1177.60;;;;;;5030764;28;20034;-62
2022/04/11 09:50:52;;;;;;;8.00;5.07;;;435.90;1203.20;;;;;;5029586;28;20530;-60
2022/04/11 09:53:30;;;;;;;6.22;3.22;;;436.10;1228.80;;;;;;5030478;28;20028;-58
2022/04/11 09:55:56;;;;;;;8.15;3.88;;;436.10;1228.80;;;;;;5030772;28;20087;-65
2022/04/11 09:58:23;;;;;;;4.93;3.40;;;436.00;1203.20;;;;;;5030397;28;20029;-60
2022/04/11 10:00:50;;;;;;;6.85;4.22;;;435.90;1254.40;;;;;;5030528;28;20030;-56
2022/04/11 10:03:19;;;;;;;10.85;5.30;;;435.90;1203.20;;;;;;5030371;28;20120;-61
2022/04/11 10:05:46;;;;;;;5.68;4.03;;;436.00;1177.60;;;;;;5030467;28;20740;-62
2022/04/11 10:08:15;;;;;;;4.22;2.80;;;460.80;1177.60;;;;;;5030484;28;20113;-56
2022/04/11 10:10:42;;;;;;;9.05;6.10;;;436.10;1152.00;;;;;;5027336;28;20025;-59
2022/04/11 10:13:13;;;;;;;9.65;5.57;;;435.70;1152.00;;;;;;5031619;28;20021;-61
2022/04/11 10:15:40;;;;;;;5.78;2.38;;;435.30;1152.00;;;;;;5032156;28;20446;-63
2022/04/11 10:18:08;;;;;;;5.28;2.85;;;409.70;1203.20;;;;;;5031807;28;20021;-60
2022/04/11 10:20:39;;;;;;;4.72;2.47;;;410.00;1254.40;;;;;;5031676;28;20025;-58
2022/04/11 10:23:24;;;;;;;7.65;2.90;;;410.20;1203.20;;;;;;5029924;28;20025;-57
2022/04/11 10:25:52;;;;;;;3.80;1.92;;;410.10;1228.80;;;;;;5030270;28;20357;-60
2022/04/11 10:28:24;;;;;;;5.65;2.03;;;409.70;1203.20;;;;;;5031215;28;20022;-62
2022/04/11 10:31:07;;;;;;;7.88;3.35;;;409.80;1203.20;;;;;;5031330;28;20159;-58
2022/04/11 10:33:49;;;;;;;5.75;4.13;;;384.50;1280.00;;;;;;5030372;28;21648;-62
2022/04/11 10:36:34;;;;;;;6.20;2.83;;;384.90;1203.20;;;;;;5030873;28;20034;-55
2022/04/11 10:39:17;;;;;;;10.50;5.88;;;409.70;1254.40;;;;;;5028709;28;20025;-55
2022/04/11 10:41:59;;;;;;;6.13;3.30;;;410.00;1254.40;;;;;;5031378;28;20033;-54
2022/04/11 10:44:38;;;;;;;5.82;3.60;;;410.20;1331.20;;;;;;5029508;28;20079;-58
2022/04/11 10:47:10;;;;;;;5.72;3.45;;;410.00;1254.40;;;;;;5029016;28;20032;-58
2022/04/11 10:49:50;;;;;;;3.67;2.22;;;384.90;1228.80;;;;;;5031662;28;20137;-57
2022/04/11 10:52:35;;;;;;;5.32;2.40;;;384.60;1280.00;;;;;;5031086;28;20043;-60
2022/04/11 10:55:14;;;;;;;5.65;2.42;;;384.80;1280.00;;;;;;5028749;28;20104;-56
2022/04/11 10:57:47;;;;;;;3.60;2.13;;;384.90;1254.40;;;;;;5028316;28;20041;-61
2022/04/11 11:00:20;;;;;;;4.43;2.33;;;409.70;1280.00;;;;;;5031051;28;20133;-57
2022/04/11 11:02:48;;;;;;;4.18;2.30;;;384.60;1280.00;;;;;;5028946;28;20392;-58
2022/04/11 11:05:36;;;;;;;6.13;3.88;;;384.20;1280.00;;;;;;5031296;28;20388;-62
2022/04/11 11:08:14;;;;;;;10.55;5.47;;;384.30;1254.40;;;;;;5030814;28;20017;-59
2022/04/11 11:10:44;;;;;;;4.75;2.78;;;384.60;1254.40;;;;;;5031306;28;20038;-57
2022/04/11 11:13:36;;;;;;;10.10;5.75;;;384.50;1228.80;;;;;;5031842;28;20419;-60
2022/04/11 11:16:07;;;;;;;5.45;2.50;;;384.60;1254.40;;;;;;5031897;28;20048;-57
2022/04/11 11:18:51;;;;;;;5.93;4.20;;;384.80;1254.40;;;;;;5031987;28;20018;-59
2022/04/11 11:21:37;;;;;;;8.00;3.60;;;409.70;1280.00;;;;;;5032086;28;20083;-56
2022/04/11 11:24:03;;;;;;;8.40;3.28;;;409.60;1254.40;;;;;;5031890;28;20028;-62
2022/04/11 11:26:45;;;;;;;9.32;5.00;;;384.70;1228.80;;;;;;5031759;28;20025;-58
2022/04/11 11:29:24;;;;;;;5.65;2.78;;;409.70;1254.40;;;;;;5031479;28;20040;-63
2022/04/11 11:31:58;;;;;;;9.10;4.80;;;384.80;1203.20;;;;;;5031506;28;20021;-64
2022/04/11 11:34:28;;;;;;;27.35;13.32;;;409.80;1228.80;;;;;;5031403;28;20052;-59
2022/04/11 11:36:58;;;;;;;21.60;10.73;;;410.00;1254.40;;;;;;5032110;28;20033;-56
2022/04/11 11:39:25;;;;;;;9.20;4.90;;;409.90;1228.80;;;;;;5031553;28;20021;-59
2022/04/11 11:41:52;;;;;;;15.55;13.43;;;409.70;1228.80;;;;;;5031433;28;20025;-59
2022/04/11 11:44:19;;;;;;;10.95;5.60;;;384.60;1228.80;;;;;;5031565;28;20084;-57
2022/04/11 11:46:54;;;;;;;5.20;3.20;;;384.40;1254.40;;;;;;5031636;28;20460;-62
2022/04/11 11:49:24;;;;;;;5.00;3.17;;;384.30;1254.40;;;;;;5031457;28;20038;-63
2022/04/11 11:51:51;;;;;;;5.65;2.47;;;384.30;1254.40;;;;;;5031509;28;20072;-60
2022/04/11 11:54:36;;;;;;;4.85;2.47;;;384.20;1254.40;;;;;;5031424;28;20431;-62
2022/04/11 11:57:11;;;;;;;5.63;3.75;;;384.60;1254.40;;;;;;5031281;28;20031;-61
2022/04/11 11:59:46;;;;;;;54.88;33.13;;;384.70;1228.80;;;;;;5031318;28;20411;-62
2022/04/11 12:04:57;;;;;;;33.05;20.05;;;384.90;1203.20;;;;;;5031508;28;20037;-59
2022/04/11 12:07:23;;;;;;;34.60;20.52;;;384.90;1203.20;;;;;;5030753;28;20018;-58
2022/04/11 12:09:49;;;;;;;31.80;22.45;;;384.50;1177.60;;;;;;5030666;28;20033;-64
2022/04/11 12:12:20;;;;;;;8.07;4.80;;;384.40;1203.20;;;;;;5031305;28;20029;-60
2022/04/11 12:15:03;;;;;;;4.82;3.00;;;384.60;1228.80;;;;;;5031046;28;20056;-64
2022/04/11 12:17:36;;;;;;;7.50;4.63;;;384.60;1228.80;;;;;;5030710;28;20033;-60
2022/04/11 12:20:10;;;;;;;11.75;7.85;;;384.50;1203.20;;;;;;5030673;28;20026;-60
2022/04/11 12:22:36;;;;;;;12.27;8.10;;;384.30;1203.20;;;;;;5030987;28;20053;-60
2022/04/11 12:25:25;;;;;;;6.57;4.28;;;384.60;1203.20;;;;;;5030506;28;20375;-55